sensor_id;sensor_type;location;lat;lon;timestamp;temperature;humidity
7784;DHT22;19359;51.402;6.778;2022-08-01T00:01:31;19.90;99.90
7784;DHT22;19359;51.402;6.778;2022-08-01T00:03:58;19.80;99.90
7784;DHT22;19359;51.402;6.778;2022-08-01T00:06:26;19.80;99.90
7784;DHT22;19359;51.402;6.778;2022-08-01T00:08:53;19.80;99.90
7784;DHT22;19359;51.402;6.778;2022-08-01T00:11:20;19.80;99.90
7784;DHT22;19359;51.402;6.778;2022-08-01T00:13:47;19.80;99.90
7784;DHT22;19359;51.402;6.778;2022-08-01T00:16:14;19.70;99.90
7784;DHT22;19359;51.402;6.778;2022-08-01T00:18:42;19.80;99.90
7784;DHT22;19359;51.402;6.778;2022-08-01T00:21:09;19.80;99.90
7784;DHT22;19359;51.402;6.778;2022-08-01T00:23:37;19.80;99.90
7784;DHT22;19359;51.402;6.778;2022-08-01T00:26:04;19.80;99.90
7784;DHT22;19359;51.402;6.778;2022-08-01T00:28:30;19.80;99.90
7784;DHT22;19359;51.402;6.778;2022-08-01T00:30:57;19.80;99.90
7784;DHT22;19359;51.402;6.778;2022-08-01T00:33:24;19.70;99.90
7784;DHT22;19359;51.402;6.778;2022-08-01T00:35:51;19.70;99.90
7784;DHT22;19359;51.402;6.778;2022-08-01T00:38:17;19.70;99.90
7784;DHT22;19359;51.402;6.778;2022-08-01T00:40:46;19.70;99.90
7784;DHT22;19359;51.402;6.778;2022-08-01T00:43:13;19.80;99.90
7784;DHT22;19359;51.402;6.778;2022-08-01T00:45:40;19.80;99.90
7784;DHT22;19359;51.402;6.778;2022-08-01T00:48:06;19.80;99.90
7784;DHT22;19359;51.402;6.778;2022-08-01T00:50:33;19.70;99.90
7784;DHT22;19359;51.402;6.778;2022-08-01T00:53:02;19.70;99.90
7784;DHT22;19359;51.402;6.778;2022-08-01T00:55:29;19.70;99.90
7784;DHT22;19359;51.402;6.778;2022-08-01T00:57:59;19.80;99.90
7784;DHT22;19359;51.402;6.778;2022-08-01T01:00:26;19.80;99.90
7784;DHT22;19359;51.402;6.778;2022-08-01T01:02:53;19.70;99.90
7784;DHT22;19359;51.402;6.778;2022-08-01T01:05:20;19.70;99.90
7784;DHT22;19359;51.402;6.778;2022-08-01T01:07:50;19.70;99.90
7784;DHT22;19359;51.402;6.778;2022-08-01T01:10:24;19.70;99.90
7784;DHT22;19359;51.402;6.778;2022-08-01T01:12:55;19.70;99.90
7784;DHT22;19359;51.402;6.778;2022-08-01T01:15:28;19.70;99.90
7784;DHT22;19359;51.402;6.778;2022-08-01T01:18:00;19.70;99.90
7784;DHT22;19359;51.402;6.778;2022-08-01T01:20:31;19.80;99.90
7784;DHT22;19359;51.402;6.778;2022-08-01T01:23:10;19.70;99.90
7784;DHT22;19359;51.402;6.778;2022-08-01T01:25:45;19.70;99.90
7784;DHT22;19359;51.402;6.778;2022-08-01T01:28:21;19.60;99.90
7784;DHT22;19359;51.402;6.778;2022-08-01T01:30:55;19.70;99.90
7784;DHT22;19359;51.402;6.778;2022-08-01T01:33:25;19.60;99.90
7784;DHT22;19359;51.402;6.778;2022-08-01T01:35:57;19.60;99.90
7784;DHT22;19359;51.402;6.778;2022-08-01T01:38:28;19.60;99.90
7784;DHT22;19359;51.402;6.778;2022-08-01T01:40:57;19.60;99.90
7784;DHT22;19359;51.402;6.778;2022-08-01T01:43:25;19.60;99.90
7784;DHT22;19359;51.402;6.778;2022-08-01T01:45:54;19.60;99.90
7784;DHT22;19359;51.402;6.778;2022-08-01T01:48:23;19.50;99.90
7784;DHT22;19359;51.402;6.778;2022-08-01T01:50:52;19.60;99.90
7784;DHT22;19359;51.402;6.778;2022-08-01T01:53:21;19.60;99.90
7784;DHT22;19359;51.402;6.778;2022-08-01T01:55:52;19.60;99.90
7784;DHT22;19359;51.402;6.778;2022-08-01T01:58:20;19.60;99.90
7784;DHT22;19359;51.402;6.778;2022-08-01T02:00:50;19.60;99.90
7784;DHT22;19359;51.402;6.778;2022-08-01T02:03:20;19.60;99.90
7784;DHT22;19359;51.402;6.778;2022-08-01T02:05:49;19.60;99.90
7784;DHT22;19359;51.402;6.778;2022-08-01T02:08:17;19.60;99.90
7784;DHT22;19359;51.402;6.778;2022-08-01T02:10:45;19.60;99.90
7784;DHT22;19359;51.402;6.778;2022-08-01T02:13:34;19.60;99.90
7784;DHT22;19359;51.402;6.778;2022-08-01T02:16:01;19.60;99.90
7784;DHT22;19359;51.402;6.778;2022-08-01T02:18:31;19.60;99.90
7784;DHT22;19359;51.402;6.778;2022-08-01T02:20:59;19.60;99.90
7784;DHT22;19359;51.402;6.778;2022-08-01T02:23:29;19.60;99.90
7784;DHT22;19359;51.402;6.778;2022-08-01T02:25:58;19.60;99.90
7784;DHT22;19359;51.402;6.778;2022-08-01T02:28:33;19.60;99.90
7784;DHT22;19359;51.402;6.778;2022-08-01T02:31:03;19.60;99.90
7784;DHT22;19359;51.402;6.778;2022-08-01T02:33:36;19.60;99.90
7784;DHT22;19359;51.402;6.778;2022-08-01T02:36:05;19.70;99.90
7784;DHT22;19359;51.402;6.778;2022-08-01T02:38:35;19.70;99.90
7784;DHT22;19359;51.402;6.778;2022-08-01T02:41:06;19.60;99.90
7784;DHT22;19359;51.402;6.778;2022-08-01T02:43:37;19.70;99.90
7784;DHT22;19359;51.402;6.778;2022-08-01T02:46:06;19.70;99.90
7784;DHT22;19359;51.402;6.778;2022-08-01T02:48:37;19.70;99.90
7784;DHT22;19359;51.402;6.778;2022-08-01T02:51:06;19.60;99.90
7784;DHT22;19359;51.402;6.778;2022-08-01T02:53:36;19.70;99.90
7784;DHT22;19359;51.402;6.778;2022-08-01T02:56:05;19.70;99.90
7784;DHT22;19359;51.402;6.778;2022-08-01T02:58:33;19.70;99.90
7784;DHT22;19359;51.402;6.778;2022-08-01T03:01:02;19.70;99.90
7784;DHT22;19359;51.402;6.778;2022-08-01T03:03:30;19.70;99.90
7784;DHT22;19359;51.402;6.778;2022-08-01T03:05:59;19.70;99.90
7784;DHT22;19359;51.402;6.778;2022-08-01T03:08:29;19.70;99.90
7784;DHT22;19359;51.402;6.778;2022-08-01T03:10:57;19.60;99.90
7784;DHT22;19359;51.402;6.778;2022-08-01T03:13:26;19.60;99.90
7784;DHT22;19359;51.402;6.778;2022-08-01T03:15:54;19.60;99.90
7784;DHT22;19359;51.402;6.778;2022-08-01T03:18:23;19.60;99.90
7784;DHT22;19359;51.402;6.778;2022-08-01T03:20:52;19.60;99.90
7784;DHT22;19359;51.402;6.778;2022-08-01T03:23:22;19.60;99.90
7784;DHT22;19359;51.402;6.778;2022-08-01T03:25:50;19.60;99.90
7784;DHT22;19359;51.402;6.778;2022-08-01T03:28:19;19.50;99.90
7784;DHT22;19359;51.402;6.778;2022-08-01T03:30:47;19.50;99.90
7784;DHT22;19359;51.402;6.778;2022-08-01T03:33:15;19.50;99.90
7784;DHT22;19359;51.402;6.778;2022-08-01T03:35:46;19.40;99.90
7784;DHT22;19359;51.402;6.778;2022-08-01T03:38:17;19.40;99.90
7784;DHT22;19359;51.402;6.778;2022-08-01T03:40:49;19.50;99.90
7784;DHT22;19359;51.402;6.778;2022-08-01T03:43:22;19.60;99.90
7784;DHT22;19359;51.402;6.778;2022-08-01T03:45:51;19.50;99.90
7784;DHT22;19359;51.402;6.778;2022-08-01T03:48:22;19.50;99.90
7784;DHT22;19359;51.402;6.778;2022-08-01T03:50:51;19.50;99.90
7784;DHT22;19359;51.402;6.778;2022-08-01T03:53:20;19.50;1.00
7784;DHT22;19359;51.402;6.778;2022-08-01T03:55:50;19.50;99.90
7784;DHT22;19359;51.402;6.778;2022-08-01T03:58:19;19.50;1.00
7784;DHT22;19359;51.402;6.778;2022-08-01T04:00:47;19.50;99.90
7784;DHT22;19359;51.402;6.778;2022-08-01T04:03:14;19.40;99.90
7784;DHT22;19359;51.402;6.778;2022-08-01T04:05:41;19.40;36.00
7784;DHT22;19359;51.402;6.778;2022-08-01T04:08:08;19.30;1.00
7784;DHT22;19359;51.402;6.778;2022-08-01T04:10:36;19.50;99.90
7784;DHT22;19359;51.402;6.778;2022-08-01T04:13:05;19.50;1.00
7784;DHT22;19359;51.402;6.778;2022-08-01T04:15:32;19.50;1.00
7784;DHT22;19359;51.402;6.778;2022-08-01T04:17:58;19.40;1.00
7784;DHT22;19359;51.402;6.778;2022-08-01T04:20:25;19.50;99.90
7784;DHT22;19359;51.402;6.778;2022-08-01T04:22:52;19.50;1.00
7784;DHT22;19359;51.402;6.778;2022-08-01T04:25:21;19.50;1.00
7784;DHT22;19359;51.402;6.778;2022-08-01T04:27:50;19.60;1.00
7784;DHT22;19359;51.402;6.778;2022-08-01T04:30:22;19.60;1.00
7784;DHT22;19359;51.402;6.778;2022-08-01T04:32:51;19.60;1.00
7784;DHT22;19359;51.402;6.778;2022-08-01T04:35:20;19.70;1.00
7784;DHT22;19359;51.402;6.778;2022-08-01T04:37:48;19.60;99.90
7784;DHT22;19359;51.402;6.778;2022-08-01T04:40:17;19.70;1.00
7784;DHT22;19359;51.402;6.778;2022-08-01T04:42:45;19.60;5.50
7784;DHT22;19359;51.402;6.778;2022-08-01T04:45:14;19.60;99.90
7784;DHT22;19359;51.402;6.778;2022-08-01T04:47:43;19.60;99.90
7784;DHT22;19359;51.402;6.778;2022-08-01T04:50:13;19.60;99.90
7784;DHT22;19359;51.402;6.778;2022-08-01T04:52:39;19.50;99.90
7784;DHT22;19359;51.402;6.778;2022-08-01T04:55:08;19.60;99.90
7784;DHT22;19359;51.402;6.778;2022-08-01T04:57:37;19.70;99.90
7784;DHT22;19359;51.402;6.778;2022-08-01T05:00:05;19.70;99.90
7784;DHT22;19359;51.402;6.778;2022-08-01T05:02:32;19.70;99.90
7784;DHT22;19359;51.402;6.778;2022-08-01T05:05:00;19.70;99.90
7784;DHT22;19359;51.402;6.778;2022-08-01T05:07:27;19.80;99.90
7784;DHT22;19359;51.402;6.778;2022-08-01T05:09:54;19.80;99.90
7784;DHT22;19359;51.402;6.778;2022-08-01T05:12:21;19.80;99.90
7784;DHT22;19359;51.402;6.778;2022-08-01T05:14:47;19.70;99.90
7784;DHT22;19359;51.402;6.778;2022-08-01T05:17:14;19.60;99.90
7784;DHT22;19359;51.402;6.778;2022-08-01T05:19:42;19.60;99.90
7784;DHT22;19359;51.402;6.778;2022-08-01T05:22:11;19.60;99.90
7784;DHT22;19359;51.402;6.778;2022-08-01T05:24:39;19.60;99.90
7784;DHT22;19359;51.402;6.778;2022-08-01T05:27:06;19.50;99.90
7784;DHT22;19359;51.402;6.778;2022-08-01T05:29:34;19.50;99.90
7784;DHT22;19359;51.402;6.778;2022-08-01T05:32:01;19.40;99.90
7784;DHT22;19359;51.402;6.778;2022-08-01T05:34:28;19.50;99.90
7784;DHT22;19359;51.402;6.778;2022-08-01T05:36:54;19.50;99.90
7784;DHT22;19359;51.402;6.778;2022-08-01T05:39:22;19.50;99.90
7784;DHT22;19359;51.402;6.778;2022-08-01T05:41:49;19.50;99.90
7784;DHT22;19359;51.402;6.778;2022-08-01T05:44:16;19.60;99.90
7784;DHT22;19359;51.402;6.778;2022-08-01T05:46:43;19.70;99.90
7784;DHT22;19359;51.402;6.778;2022-08-01T05:49:09;19.70;99.90
7784;DHT22;19359;51.402;6.778;2022-08-01T05:51:36;19.70;99.90
7784;DHT22;19359;51.402;6.778;2022-08-01T05:54:04;19.70;99.90
7784;DHT22;19359;51.402;6.778;2022-08-01T05:56:32;19.70;99.90
7784;DHT22;19359;51.402;6.778;2022-08-01T05:58:59;19.80;99.90
7784;DHT22;19359;51.402;6.778;2022-08-01T06:01:26;19.80;99.90
7784;DHT22;19359;51.402;6.778;2022-08-01T06:03:52;19.80;99.90
7784;DHT22;19359;51.402;6.778;2022-08-01T06:06:19;19.90;99.90
7784;DHT22;19359;51.402;6.778;2022-08-01T06:08:46;20.00;99.90
7784;DHT22;19359;51.402;6.778;2022-08-01T06:11:13;20.00;99.90
7784;DHT22;19359;51.402;6.778;2022-08-01T06:13:41;20.00;99.90
7784;DHT22;19359;51.402;6.778;2022-08-01T06:16:08;19.90;99.90
7784;DHT22;19359;51.402;6.778;2022-08-01T06:18:35;19.90;99.90
7784;DHT22;19359;51.402;6.778;2022-08-01T06:21:02;19.90;99.90
7784;DHT22;19359;51.402;6.778;2022-08-01T06:23:29;19.90;99.90
7784;DHT22;19359;51.402;6.778;2022-08-01T06:25:55;20.10;99.90
7784;DHT22;19359;51.402;6.778;2022-08-01T06:28:23;20.20;99.90
7784;DHT22;19359;51.402;6.778;2022-08-01T06:30:51;20.30;99.90
7784;DHT22;19359;51.402;6.778;2022-08-01T06:33:18;20.20;99.90
7784;DHT22;19359;51.402;6.778;2022-08-01T06:35:46;20.20;99.90
7784;DHT22;19359;51.402;6.778;2022-08-01T06:38:13;20.20;99.90
7784;DHT22;19359;51.402;6.778;2022-08-01T06:40:40;20.30;99.90
7784;DHT22;19359;51.402;6.778;2022-08-01T06:48:14;20.80;99.90
7784;DHT22;19359;51.402;6.778;2022-08-01T06:50:41;20.90;99.90
7784;DHT22;19359;51.402;6.778;2022-08-01T06:53:08;21.10;99.90
7784;DHT22;19359;51.402;6.778;2022-08-01T06:55:35;21.10;99.90
7784;DHT22;19359;51.402;6.778;2022-08-01T06:58:02;21.20;99.90
7784;DHT22;19359;51.402;6.778;2022-08-01T07:00:28;21.20;99.90
7784;DHT22;19359;51.402;6.778;2022-08-01T07:02:57;21.20;99.90
7784;DHT22;19359;51.402;6.778;2022-08-01T07:05:26;21.30;99.90
7784;DHT22;19359;51.402;6.778;2022-08-01T07:07:53;21.30;99.90
7784;DHT22;19359;51.402;6.778;2022-08-01T07:10:20;21.40;99.90
7784;DHT22;19359;51.402;6.778;2022-08-01T07:12:47;21.40;99.90
7784;DHT22;19359;51.402;6.778;2022-08-01T07:15:13;21.50;99.90
7784;DHT22;19359;51.402;6.778;2022-08-01T07:17:42;21.50;99.90
7784;DHT22;19359;51.402;6.778;2022-08-01T07:20:10;21.50;99.90
7784;DHT22;19359;51.402;6.778;2022-08-01T07:22:38;21.80;99.90
7784;DHT22;19359;51.402;6.778;2022-08-01T07:25:06;21.90;99.90
7784;DHT22;19359;51.402;6.778;2022-08-01T07:27:34;22.00;99.90
7784;DHT22;19359;51.402;6.778;2022-08-01T07:30:00;21.90;99.90
7784;DHT22;19359;51.402;6.778;2022-08-01T07:32:27;22.00;99.90
7784;DHT22;19359;51.402;6.778;2022-08-01T07:34:55;22.00;99.90
7784;DHT22;19359;51.402;6.778;2022-08-01T07:37:22;21.90;99.90
7784;DHT22;19359;51.402;6.778;2022-08-01T07:39:50;21.80;99.90
7784;DHT22;19359;51.402;6.778;2022-08-01T07:42:17;21.90;99.90
7784;DHT22;19359;51.402;6.778;2022-08-01T07:44:44;21.80;99.90
7784;DHT22;19359;51.402;6.778;2022-08-01T07:47:10;21.60;99.90
7784;DHT22;19359;51.402;6.778;2022-08-01T07:52:04;21.90;99.90
7784;DHT22;19359;51.402;6.778;2022-08-01T07:54:31;22.00;99.90
7784;DHT22;19359;51.402;6.778;2022-08-01T07:57:00;21.90;99.90
7784;DHT22;19359;51.402;6.778;2022-08-01T07:59:26;21.80;99.90
7784;DHT22;19359;51.402;6.778;2022-08-01T08:01:53;21.70;99.90
7784;DHT22;19359;51.402;6.778;2022-08-01T08:04:20;21.80;99.90
7784;DHT22;19359;51.402;6.778;2022-08-01T08:06:47;22.10;99.90
7784;DHT22;19359;51.402;6.778;2022-08-01T08:09:14;22.30;99.90
7784;DHT22;19359;51.402;6.778;2022-08-01T08:11:42;22.40;99.90
7784;DHT22;19359;51.402;6.778;2022-08-01T08:14:11;22.40;99.90
7784;DHT22;19359;51.402;6.778;2022-08-01T08:16:37;22.50;99.90
7784;DHT22;19359;51.402;6.778;2022-08-01T08:26:43;23.00;99.90
7784;DHT22;19359;51.402;6.778;2022-08-01T08:29:11;22.80;99.90
7784;DHT22;19359;51.402;6.778;2022-08-01T08:31:38;22.80;99.90
7784;DHT22;19359;51.402;6.778;2022-08-01T08:36:32;22.80;99.90
7784;DHT22;19359;51.402;6.778;2022-08-01T08:38:59;23.00;99.90
7784;DHT22;19359;51.402;6.778;2022-08-01T08:41:28;23.30;99.90
7784;DHT22;19359;51.402;6.778;2022-08-01T08:43:55;23.30;99.90
7784;DHT22;19359;51.402;6.778;2022-08-01T08:46:25;23.30;99.90
7784;DHT22;19359;51.402;6.778;2022-08-01T08:48:53;23.40;99.90
7784;DHT22;19359;51.402;6.778;2022-08-01T08:51:21;23.50;99.90
7784;DHT22;19359;51.402;6.778;2022-08-01T08:53:51;23.50;99.90
7784;DHT22;19359;51.402;6.778;2022-08-01T08:56:21;23.50;99.90
7784;DHT22;19359;51.402;6.778;2022-08-01T08:58:51;23.20;99.90
7784;DHT22;19359;51.402;6.778;2022-08-01T09:01:18;23.10;99.90
7784;DHT22;19359;51.402;6.778;2022-08-01T09:03:46;23.40;99.90
7784;DHT22;19359;51.402;6.778;2022-08-01T09:06:13;23.90;99.90
7784;DHT22;19359;51.402;6.778;2022-08-01T09:08:40;23.90;99.90
7784;DHT22;19359;51.402;6.778;2022-08-01T09:11:07;23.90;99.90
7784;DHT22;19359;51.402;6.778;2022-08-01T09:13:34;23.80;99.90
7784;DHT22;19359;51.402;6.778;2022-08-01T09:16:01;23.90;99.90
7784;DHT22;19359;51.402;6.778;2022-08-01T09:18:30;24.10;1.00
7784;DHT22;19359;51.402;6.778;2022-08-01T09:21:14;24.10;1.00
7784;DHT22;19359;51.402;6.778;2022-08-01T09:23:44;24.00;1.00
7784;DHT22;19359;51.402;6.778;2022-08-01T09:26:12;23.70;99.90
7784;DHT22;19359;51.402;6.778;2022-08-01T09:28:39;23.30;99.90
7784;DHT22;19359;51.402;6.778;2022-08-01T09:31:08;23.30;99.90
7784;DHT22;19359;51.402;6.778;2022-08-01T09:33:48;23.40;99.90
7784;DHT22;19359;51.402;6.778;2022-08-01T09:36:17;23.30;99.90
7784;DHT22;19359;51.402;6.778;2022-08-01T09:43:38;23.90;5.00
7784;DHT22;19359;51.402;6.778;2022-08-01T09:46:09;24.20;13.80
7784;DHT22;19359;51.402;6.778;2022-08-01T09:48:37;24.20;1.00
7784;DHT22;19359;51.402;6.778;2022-08-01T09:51:05;24.10;1.00
7784;DHT22;19359;51.402;6.778;2022-08-01T09:53:47;24.30;30.90
7784;DHT22;19359;51.402;6.778;2022-08-01T09:56:14;23.90;1.00
7784;DHT22;19359;51.402;6.778;2022-08-01T09:58:51;23.90;1.00
7784;DHT22;19359;51.402;6.778;2022-08-01T10:01:20;24.20;1.00
7784;DHT22;19359;51.402;6.778;2022-08-01T10:04:04;24.50;99.90
7784;DHT22;19359;51.402;6.778;2022-08-01T10:06:31;24.60;99.90
7784;DHT22;19359;51.402;6.778;2022-08-01T10:08:59;24.80;25.50
7784;DHT22;19359;51.402;6.778;2022-08-01T10:11:26;24.50;99.90
7784;DHT22;19359;51.402;6.778;2022-08-01T10:13:55;24.40;1.00
7784;DHT22;19359;51.402;6.778;2022-08-01T10:16:23;24.40;1.00
7784;DHT22;19359;51.402;6.778;2022-08-01T10:18:51;24.10;1.00
7784;DHT22;19359;51.402;6.778;2022-08-01T10:21:20;24.10;1.00
7784;DHT22;19359;51.402;6.778;2022-08-01T10:23:51;24.30;1.00
7784;DHT22;19359;51.402;6.778;2022-08-01T10:26:25;24.60;1.00
7784;DHT22;19359;51.402;6.778;2022-08-01T10:28:53;24.70;1.00
7784;DHT22;19359;51.402;6.778;2022-08-01T10:31:21;24.70;1.00
7784;DHT22;19359;51.402;6.778;2022-08-01T10:33:49;24.70;1.00
7784;DHT22;19359;51.402;6.778;2022-08-01T10:36:18;24.50;1.00
7784;DHT22;19359;51.402;6.778;2022-08-01T10:38:46;24.20;99.90
7784;DHT22;19359;51.402;6.778;2022-08-01T10:41:13;24.20;1.00
7784;DHT22;19359;51.402;6.778;2022-08-01T10:43:42;24.20;1.00
7784;DHT22;19359;51.402;6.778;2022-08-01T10:46:10;24.20;99.90
7784;DHT22;19359;51.402;6.778;2022-08-01T10:48:43;24.60;1.00
7784;DHT22;19359;51.402;6.778;2022-08-01T10:51:12;24.80;99.90
7784;DHT22;19359;51.402;6.778;2022-08-01T10:53:46;24.90;99.90
7784;DHT22;19359;51.402;6.778;2022-08-01T10:56:14;25.00;42.50
7784;DHT22;19359;51.402;6.778;2022-08-01T10:58:46;25.10;1.00
7784;DHT22;19359;51.402;6.778;2022-08-01T11:01:19;25.40;99.90
7784;DHT22;19359;51.402;6.778;2022-08-01T11:04:04;25.40;99.90
7784;DHT22;19359;51.402;6.778;2022-08-01T11:06:43;25.50;99.90
7784;DHT22;19359;51.402;6.778;2022-08-01T11:09:24;25.50;99.90
7784;DHT22;19359;51.402;6.778;2022-08-01T11:12:04;25.00;99.90
7784;DHT22;19359;51.402;6.778;2022-08-01T11:17:51;24.70;99.90
7784;DHT22;19359;51.402;6.778;2022-08-01T11:20:19;25.00;1.00
7784;DHT22;19359;51.402;6.778;2022-08-01T11:26:20;25.60;1.00
7784;DHT22;19359;51.402;6.778;2022-08-01T11:29:20;25.50;1.00
7784;DHT22;19359;51.402;6.778;2022-08-01T11:31:47;25.60;99.90
7784;DHT22;19359;51.402;6.778;2022-08-01T11:34:16;25.40;99.90
7784;DHT22;19359;51.402;6.778;2022-08-01T11:36:43;25.60;99.90
7784;DHT22;19359;51.402;6.778;2022-08-01T11:39:15;25.70;99.90
7784;DHT22;19359;51.402;6.778;2022-08-01T11:41:43;25.90;99.90
7784;DHT22;19359;51.402;6.778;2022-08-01T11:44:12;26.10;99.90
7784;DHT22;19359;51.402;6.778;2022-08-01T11:46:51;26.30;99.90
7784;DHT22;19359;51.402;6.778;2022-08-01T11:49:43;26.20;99.90
7784;DHT22;19359;51.402;6.778;2022-08-01T11:52:12;26.30;99.90
7784;DHT22;19359;51.402;6.778;2022-08-01T11:54:41;26.20;99.90
7784;DHT22;19359;51.402;6.778;2022-08-01T11:57:09;25.80;99.90
7784;DHT22;19359;51.402;6.778;2022-08-01T11:59:39;25.80;1.00
7784;DHT22;19359;51.402;6.778;2022-08-01T12:02:16;25.50;99.90
7784;DHT22;19359;51.402;6.778;2022-08-01T12:04:53;25.70;99.90
7784;DHT22;19359;51.402;6.778;2022-08-01T12:07:21;25.70;99.90
7784;DHT22;19359;51.402;6.778;2022-08-01T12:09:56;26.00;99.90
7784;DHT22;19359;51.402;6.778;2022-08-01T12:12:24;26.30;99.90
7784;DHT22;19359;51.402;6.778;2022-08-01T12:14:54;26.40;99.90
7784;DHT22;19359;51.402;6.778;2022-08-01T12:17:31;26.20;99.90
7784;DHT22;19359;51.402;6.778;2022-08-01T12:19:59;26.30;99.90
7784;DHT22;19359;51.402;6.778;2022-08-01T12:22:26;26.70;99.90
7784;DHT22;19359;51.402;6.778;2022-08-01T12:24:54;27.50;99.90
7784;DHT22;19359;51.402;6.778;2022-08-01T12:27:26;27.40;99.90
7784;DHT22;19359;51.402;6.778;2022-08-01T12:29:54;27.30;99.90
7784;DHT22;19359;51.402;6.778;2022-08-01T12:32:22;27.50;99.90
7784;DHT22;19359;51.402;6.778;2022-08-01T12:34:50;27.90;99.90
7784;DHT22;19359;51.402;6.778;2022-08-01T12:37:18;28.10;1.00
7784;DHT22;19359;51.402;6.778;2022-08-01T12:39:46;27.80;99.90
7784;DHT22;19359;51.402;6.778;2022-08-01T12:42:14;27.00;99.90
7784;DHT22;19359;51.402;6.778;2022-08-01T12:44:43;26.90;99.90
7784;DHT22;19359;51.402;6.778;2022-08-01T12:47:11;26.40;99.90
7784;DHT22;19359;51.402;6.778;2022-08-01T12:49:41;26.10;99.90
7784;DHT22;19359;51.402;6.778;2022-08-01T12:52:09;26.10;99.90
7784;DHT22;19359;51.402;6.778;2022-08-01T12:55:07;26.50;99.90
7784;DHT22;19359;51.402;6.778;2022-08-01T12:57:35;27.30;99.90
7784;DHT22;19359;51.402;6.778;2022-08-01T13:00:11;27.70;99.90
7784;DHT22;19359;51.402;6.778;2022-08-01T13:02:40;27.60;99.90
7784;DHT22;19359;51.402;6.778;2022-08-01T13:05:07;27.60;99.90
7784;DHT22;19359;51.402;6.778;2022-08-01T13:07:36;26.90;99.90
7784;DHT22;19359;51.402;6.778;2022-08-01T13:10:06;26.50;1.00
7784;DHT22;19359;51.402;6.778;2022-08-01T13:12:33;25.90;99.90
7784;DHT22;19359;51.402;6.778;2022-08-01T13:14:59;26.30;99.90
7784;DHT22;19359;51.402;6.778;2022-08-01T13:17:39;26.30;99.90
7784;DHT22;19359;51.402;6.778;2022-08-01T13:20:07;27.40;99.90
7784;DHT22;19359;51.402;6.778;2022-08-01T13:22:34;27.90;99.90
7784;DHT22;19359;51.402;6.778;2022-08-01T13:25:14;28.20;99.90
7784;DHT22;19359;51.402;6.778;2022-08-01T13:27:41;29.00;99.90
7784;DHT22;19359;51.402;6.778;2022-08-01T13:30:12;29.20;99.90
7784;DHT22;19359;51.402;6.778;2022-08-01T13:32:39;29.10;99.90
7784;DHT22;19359;51.402;6.778;2022-08-01T13:35:09;28.70;99.90
7784;DHT22;19359;51.402;6.778;2022-08-01T13:37:38;27.00;99.90
7784;DHT22;19359;51.402;6.778;2022-08-01T13:40:07;26.90;1.00
7784;DHT22;19359;51.402;6.778;2022-08-01T13:42:36;26.60;99.90
7784;DHT22;19359;51.402;6.778;2022-08-01T13:45:04;26.70;99.90
7784;DHT22;19359;51.402;6.778;2022-08-01T13:47:32;26.50;99.90
7784;DHT22;19359;51.402;6.778;2022-08-01T13:50:00;26.60;99.90
7784;DHT22;19359;51.402;6.778;2022-08-01T13:52:28;26.80;99.90
7784;DHT22;19359;51.402;6.778;2022-08-01T13:54:55;26.60;99.90
7784;DHT22;19359;51.402;6.778;2022-08-01T13:57:21;26.80;99.90
7784;DHT22;19359;51.402;6.778;2022-08-01T13:59:50;26.50;99.90
7784;DHT22;19359;51.402;6.778;2022-08-01T14:02:17;26.20;99.90
7784;DHT22;19359;51.402;6.778;2022-08-01T14:04:44;26.00;99.90
7784;DHT22;19359;51.402;6.778;2022-08-01T14:07:11;26.00;99.90
7784;DHT22;19359;51.402;6.778;2022-08-01T14:09:37;25.70;99.90
7784;DHT22;19359;51.402;6.778;2022-08-01T14:12:05;25.80;99.90
7784;DHT22;19359;51.402;6.778;2022-08-01T14:14:32;25.80;1.00
7784;DHT22;19359;51.402;6.778;2022-08-01T14:17:00;26.10;1.00
7784;DHT22;19359;51.402;6.778;2022-08-01T14:19:26;26.10;1.00
7784;DHT22;19359;51.402;6.778;2022-08-01T14:21:53;25.90;99.90
7784;DHT22;19359;51.402;6.778;2022-08-01T14:24:22;25.70;99.90
7784;DHT22;19359;51.402;6.778;2022-08-01T14:26:49;25.80;99.90
7784;DHT22;19359;51.402;6.778;2022-08-01T14:29:15;25.60;99.90
7784;DHT22;19359;51.402;6.778;2022-08-01T14:31:42;25.70;99.90
7784;DHT22;19359;51.402;6.778;2022-08-01T14:34:10;26.10;99.90
7784;DHT22;19359;51.402;6.778;2022-08-01T14:36:38;26.20;99.90
7784;DHT22;19359;51.402;6.778;2022-08-01T14:39:05;26.50;99.90
7784;DHT22;19359;51.402;6.778;2022-08-01T14:41:32;26.30;99.90
7784;DHT22;19359;51.402;6.778;2022-08-01T14:43:59;26.70;99.90
7784;DHT22;19359;51.402;6.778;2022-08-01T14:46:26;27.20;99.90
7784;DHT22;19359;51.402;6.778;2022-08-01T14:51:22;26.80;99.90
7784;DHT22;19359;51.402;6.778;2022-08-01T14:53:48;27.10;99.90
7784;DHT22;19359;51.402;6.778;2022-08-01T14:56:16;27.40;99.90
7784;DHT22;19359;51.402;6.778;2022-08-01T14:58:43;27.50;52.00
7784;DHT22;19359;51.402;6.778;2022-08-01T15:01:09;27.90;99.90
7784;DHT22;19359;51.402;6.778;2022-08-01T15:03:36;28.20;99.90
7784;DHT22;19359;51.402;6.778;2022-08-01T15:06:03;28.50;99.90
7784;DHT22;19359;51.402;6.778;2022-08-01T15:08:33;28.80;99.90
7784;DHT22;19359;51.402;6.778;2022-08-01T15:11:00;28.90;99.90
7784;DHT22;19359;51.402;6.778;2022-08-01T15:13:27;28.90;99.90
7784;DHT22;19359;51.402;6.778;2022-08-01T15:15:54;29.10;99.90
7784;DHT22;19359;51.402;6.778;2022-08-01T15:18:21;29.40;1.00
7784;DHT22;19359;51.402;6.778;2022-08-01T15:23:14;28.90;99.90
7784;DHT22;19359;51.402;6.778;2022-08-01T15:25:42;29.50;1.00
7784;DHT22;19359;51.402;6.778;2022-08-01T15:28:09;29.00;1.00
7784;DHT22;19359;51.402;6.778;2022-08-01T15:30:36;28.70;1.00
7784;DHT22;19359;51.402;6.778;2022-08-01T15:33:04;28.50;99.90
7784;DHT22;19359;51.402;6.778;2022-08-01T15:35:30;28.00;1.00
7784;DHT22;19359;51.402;6.778;2022-08-01T15:37:57;27.80;99.90
7784;DHT22;19359;51.402;6.778;2022-08-01T15:40:24;28.50;1.00
7784;DHT22;19359;51.402;6.778;2022-08-01T15:42:53;29.10;99.90
7784;DHT22;19359;51.402;6.778;2022-08-01T15:45:20;29.10;99.90
7784;DHT22;19359;51.402;6.778;2022-08-01T15:47:47;29.60;99.90
7784;DHT22;19359;51.402;6.778;2022-08-01T15:50:13;30.00;1.00
7784;DHT22;19359;51.402;6.778;2022-08-01T15:52:40;30.70;1.00
7784;DHT22;19359;51.402;6.778;2022-08-01T15:55:08;30.90;99.90
7784;DHT22;19359;51.402;6.778;2022-08-01T15:57:35;30.70;99.90
7784;DHT22;19359;51.402;6.778;2022-08-01T16:00:04;30.00;99.90
7784;DHT22;19359;51.402;6.778;2022-08-01T16:02:31;28.60;99.90
7784;DHT22;19359;51.402;6.778;2022-08-01T16:04:57;27.70;99.90
7784;DHT22;19359;51.402;6.778;2022-08-01T16:07:24;27.30;99.90
7784;DHT22;19359;51.402;6.778;2022-08-01T16:09:51;27.00;99.90
7784;DHT22;19359;51.402;6.778;2022-08-01T16:12:18;26.80;99.90
7784;DHT22;19359;51.402;6.778;2022-08-01T16:14:45;26.90;99.90
7784;DHT22;19359;51.402;6.778;2022-08-01T16:17:13;27.10;99.90
7784;DHT22;19359;51.402;6.778;2022-08-01T16:19:40;27.60;1.00
7784;DHT22;19359;51.402;6.778;2022-08-01T16:22:07;28.80;99.90
7784;DHT22;19359;51.402;6.778;2022-08-01T16:24:34;29.20;99.90
7784;DHT22;19359;51.402;6.778;2022-08-01T16:27:01;28.30;1.00
7784;DHT22;19359;51.402;6.778;2022-08-01T16:29:27;27.80;99.90
7784;DHT22;19359;51.402;6.778;2022-08-01T16:31:56;28.10;1.00